aviador You're here:

PAPB Decoded Metar

POINT BARROW in AK, USA
Report Time2018-02-18 20:53:00
UTC Time2018-02-18 21:39:25
Flight Rules vfr VFR
Wind160° at 20 Gusting to 28 kt
W.Decomp.*RWY 11: 15.5 kt HW 12.6 kt RCW
W.Rank160° ranks 33
Current wind is above 160° avg. (14.4)
Visibility9999 m
Phenomena:N/A
Clouds:Broken 110 Hf
Expected CloudBase > 800 ft AGL from Temp-Dew spread
Ceiling11,000 ft
Temp03°C (ISA -12)
Dew Point01°C (87% RH)
AAT-6.0°C
QNH1020 hPa
Density Alt-1,463 ft
Elevation115 ft
Report Wrong Elevation
Raw Report
PAPB 182053Z AUTO 16020G28KT 10SM BKN110 03/01 A3011 RMK AO2 PK
WND 17029/2043 SLP185 T00330006 50008 TSNO $=

Extra information for PAPB:More info

Metar Taf Metar & Taf Last 4 Metars F.Rules Stats Wind Profile Meteogram Temp Stats Airport Information Weather charts Add Link Nearby VenuesMetar ALERT Operation Metar Decoded Social comments

AIRNAV info for PAPB